Time;durP1;ratioP1;P1;durP2;ratioP2;P2;SDS_P1;SDS_P2;PMS_P1;PMS_P2;Temp;Humidity;BMP_temperature;BMP_pressure;BME280_temperature;BME280_humidity;BME280_pressure;Samples;Min_cycle;Max_cycle;Signal;HPM_P1;HPM_P2
2022/08/31 00:04:00;;;;;;;6.53;5.80;;;;;;;21.54;64.65;99234.53;6174290;23;20344;-94
2022/08/31 00:06:26;;;;;;;9.05;6.00;;;;;;;21.54;64.79;99242.75;6143090;23;20317;-94
2022/08/31 00:08:51;;;;;;;9.20;6.03;;;;;;;21.48;65.73;99241.41;6140904;23;19997;-94
2022/08/31 00:11:26;;;;;;;9.00;5.88;;;;;;;21.43;65.02;99241.66;6164808;23;20028;-93
2022/08/31 00:13:52;;;;;;;8.05;6.13;;;;;;;21.46;64.78;99233.53;6168560;23;20084;-93
2022/08/31 00:16:17;;;;;;;10.05;5.85;;;;;;;21.50;64.57;99219.94;6165237;23;20007;-95
2022/08/31 00:18:43;;;;;;;7.65;5.85;;;;;;;21.67;64.34;99235.34;6165970;23;20004;-94
2022/08/31 00:21:08;;;;;;;8.95;4.95;;;;;;;21.74;64.68;99252.78;6164876;23;20021;-93
2022/08/31 00:23:35;;;;;;;9.23;5.90;;;;;;;21.82;64.32;99248.31;6166863;23;20478;-94
2022/08/31 00:26:00;;;;;;;10.02;5.57;;;;;;;21.96;63.20;99240.50;6190002;23;20091;-94
2022/08/31 00:28:26;;;;;;;8.85;5.88;;;;;;;21.98;63.38;99254.66;6166019;23;19992;-94
2022/08/31 00:30:51;;;;;;;9.50;6.03;;;;;;;21.83;63.59;99238.13;6164866;23;19997;-93
2022/08/31 00:33:17;;;;;;;8.65;6.15;;;;;;;21.87;63.62;99245.34;6165044;23;20074;-94
2022/08/31 00:35:43;;;;;;;7.15;5.53;;;;;;;21.84;63.62;99237.78;6166060;23;20007;-93
2022/08/31 00:38:09;;;;;;;7.10;5.72;;;;;;;21.77;64.03;99245.81;6164774;23;20000;-94
2022/08/31 00:40:34;;;;;;;8.60;5.60;;;;;;;21.80;64.21;99250.59;6164997;23;20000;-94
2022/08/31 00:43:00;;;;;;;7.68;6.50;;;;;;;21.80;64.20;99250.59;6164758;23;20099;-94
2022/08/31 00:45:26;;;;;;;6.38;5.50;;;;;;;21.86;63.96;99267.59;6165522;23;20401;-93
2022/08/31 00:47:52;;;;;;;8.48;6.32;;;;;;;21.77;64.09;99251.31;6165011;23;19997;-94
2022/08/31 00:50:17;;;;;;;9.38;6.18;;;;;;;21.82;64.13;99256.53;6165899;23;20004;-94
2022/08/31 00:52:49;;;;;;;11.38;5.82;;;;;;;21.75;64.43;99248.09;6165055;23;20004;-92
2022/08/31 00:55:19;;;;;;;9.65;5.80;;;;;;;21.76;64.72;99255.16;6165888;23;19997;-94
2022/08/31 00:57:47;;;;;;;7.50;6.15;;;;;;;21.76;64.35;99238.72;6180314;23;20012;-93
2022/08/31 01:00:15;;;;;;;9.18;6.28;;;;;;;21.76;64.68;99242.25;6178199;23;19996;-94
2022/08/31 01:02:41;;;;;;;7.28;5.32;;;;;;;21.79;64.55;99238.06;6207697;23;20008;-93
2022/08/31 01:05:07;;;;;;;9.35;6.07;;;;;;;21.74;64.28;99235.53;6184583;23;20428;-94
2022/08/31 01:07:32;;;;;;;7.63;5.88;;;;;;;21.63;64.58;99224.25;6209038;23;20019;-93
2022/08/31 01:09:58;;;;;;;8.48;5.97;;;;;;;21.55;64.99;99223.25;6185105;23;20000;-93
2022/08/31 01:12:24;;;;;;;10.35;6.28;;;;;;;21.49;64.84;99218.34;6182780;23;19996;-94
2022/08/31 01:14:50;;;;;;;8.77;6.03;;;;;;;21.42;65.50;99212.63;6183110;23;20008;-93
2022/08/31 01:17:16;;;;;;;10.50;5.78;;;;;;;21.47;65.55;99232.38;6175166;23;20355;-94
2022/08/31 01:19:49;;;;;;;13.90;6.10;;;;;;;21.46;65.93;99230.81;6146779;23;20025;-94
2022/08/31 01:22:27;;;;;;;8.77;6.10;;;;;;;21.57;65.11;99215.47;6165291;23;20001;-93
2022/08/31 01:24:53;;;;;;;8.82;5.78;;;;;;;21.62;64.76;99219.13;6190253;23;20040;-92
2022/08/31 01:27:22;;;;;;;11.73;6.13;;;;;;;21.61;64.58;99228.50;6164800;23;20003;-93
2022/08/31 01:29:49;;;;;;;10.43;5.82;;;;;;;21.65;64.56;99234.88;6165554;23;20003;-94
2022/08/31 01:32:15;;;;;;;10.25;5.45;;;;;;;21.44;64.96;99213.13;6165949;23;19993;-94
2022/08/31 01:34:40;;;;;;;8.70;6.18;;;;;;;21.54;65.00;99242.75;6164546;23;20007;-93
2022/08/31 01:37:06;;;;;;;7.80;5.95;;;;;;;21.35;65.32;99222.22;6160745;23;20077;-93
2022/08/31 01:39:31;;;;;;;8.32;5.72;;;;;;;21.51;65.06;99235.25;6160681;23;20000;-96
2022/08/31 01:41:57;;;;;;;7.75;6.03;;;;;;;21.55;64.10;99211.50;6164047;23;20009;-94
2022/08/31 01:44:23;;;;;;;10.25;5.55;;;;;;;21.59;64.40;99217.88;6164183;23;20001;-93
2022/08/31 01:46:49;;;;;;;10.00;5.68;;;;;;;21.73;64.19;99228.47;6164762;23;19996;-94
2022/08/31 01:49:15;;;;;;;6.22;5.35;;;;;;;21.73;64.04;99245.72;6164832;23;20023;-95
2022/08/31 01:51:40;;;;;;;6.05;5.38;;;;;;;21.63;64.81;99242.66;6162092;23;20001;-93
2022/08/31 01:54:06;;;;;;;11.13;5.70;;;;;;;21.51;64.81;99236.03;6165098;23;20062;-94
2022/08/31 01:56:34;;;;;;;8.10;6.07;;;;;;;21.43;65.51;99242.44;6164791;23;19997;-93
2022/08/31 01:59:00;;;;;;;7.78;5.50;;;;;;;21.57;64.32;99233.88;6163934;23;20004;-95
2022/08/31 02:01:31;;;;;;;7.75;5.57;;;;;;;21.75;63.97;99235.19;6189438;23;19996;-95
2022/08/31 02:03:56;;;;;;;11.82;6.47;;;;;;;21.86;63.74;99242.94;6152791;23;20441;-93
2022/08/31 02:06:22;;;;;;;7.50;5.38;;;;;;;21.78;63.98;99236.44;6164342;23;20008;-95
2022/08/31 02:08:47;;;;;;;7.60;5.45;;;;;;;21.89;63.28;99243.00;6165094;23;19999;-94
2022/08/31 02:11:13;;;;;;;10.23;5.68;;;;;;;21.62;64.20;99222.66;6163866;23;20004;-94
2022/08/31 02:13:38;;;;;;;7.50;5.38;;;;;;;21.54;64.56;99229.88;6164167;23;19996;-94
2022/08/31 02:16:04;;;;;;;9.27;5.63;;;;;;;21.58;64.36;99232.72;6164399;23;20003;-94
2022/08/31 02:18:30;;;;;;;11.25;5.85;;;;;;;21.62;64.31;99233.59;6164516;23;20004;-93
2022/08/31 02:20:55;;;;;;;7.55;6.05;;;;;;;21.53;64.83;99228.28;6189566;23;20415;-93
2022/08/31 02:23:21;;;;;;;10.13;5.68;;;;;;;21.62;64.46;99233.59;6164305;23;20011;-93
2022/08/31 02:25:46;;;;;;;11.27;6.45;;;;;;;21.51;64.80;99229.75;6163817;23;20001;-93
2022/08/31 02:28:12;;;;;;;7.38;5.53;;;;;;;21.37;65.38;99227.34;6164966;23;19997;-94
2022/08/31 02:30:41;;;;;;;10.18;6.20;;;;;;;21.37;65.79;99238.31;6164916;23;20439;-94
2022/08/31 02:33:07;;;;;;;7.43;5.95;;;;;;;21.25;66.71;99238.31;6164623;23;20096;-93
2022/08/31 02:35:33;;;;;;;9.00;6.25;;;;;;;21.12;66.67;99240.25;6165087;23;20516;-93
2022/08/31 02:37:59;;;;;;;8.77;6.15;;;;;;;21.15;66.78;99240.38;6165466;23;20008;-94
2022/08/31 02:40:24;;;;;;;9.77;6.32;;;;;;;21.21;66.95;99257.38;6164761;23;20493;-94
2022/08/31 02:42:50;;;;;;;10.38;6.80;;;;;;;21.07;66.93;99235.03;6165152;23;20439;-93
2022/08/31 02:45:15;;;;;;;8.80;6.25;;;;;;;21.03;67.35;99247.78;6167334;23;20478;-95
2022/08/31 02:47:41;;;;;;;11.73;6.63;;;;;;;20.96;67.26;99238.22;6165342;23;20424;-93
2022/08/31 02:50:06;;;;;;;11.95;7.15;;;;;;;20.91;67.29;99240.38;6166081;23;20427;-93
2022/08/31 02:52:32;;;;;;;8.90;6.28;;;;;;;20.79;67.68;99239.22;6166073;23;20016;-93
2022/08/31 02:54:57;;;;;;;11.77;6.50;;;;;;;20.71;68.28;99242.84;6165898;23;20003;-93
2022/08/31 02:57:23;;;;;;;8.23;6.30;;;;;;;20.63;68.23;99238.28;6166881;23;20007;-93
2022/08/31 02:59:48;;;;;;;11.45;6.65;;;;;;;20.69;68.42;99253.34;6165921;23;20008;-94
2022/08/31 03:02:14;;;;;;;8.40;6.30;;;;;;;20.71;68.40;99255.72;6166235;23;20427;-94
2022/08/31 03:04:40;;;;;;;10.65;7.22;;;;;;;20.58;68.48;99236.53;6166689;23;20000;-93
2022/08/31 03:07:05;;;;;;;9.80;6.43;;;;;;;20.75;68.33;99252.00;6166047;23;20004;-93
2022/08/31 03:09:31;;;;;;;9.20;6.38;;;;;;;20.81;67.74;99243.53;6165977;23;20439;-94
2022/08/31 03:11:57;;;;;;;8.80;6.38;;;;;;;20.76;68.80;99242.63;6166521;23;20316;-93
2022/08/31 03:14:23;;;;;;;12.60;6.90;;;;;;;20.70;69.06;99245.91;6166348;23;20004;-94
2022/08/31 03:16:48;;;;;;;11.27;6.97;;;;;;;20.66;68.71;99250.47;6165924;23;20102;-93
2022/08/31 03:19:14;;;;;;;9.30;6.50;;;;;;;20.59;68.94;99251.03;6165379;23;20013;-93
2022/08/31 03:21:39;;;;;;;11.68;6.75;;;;;;;20.50;69.04;99244.81;6165614;23;20005;-94
2022/08/31 03:24:05;;;;;;;10.43;6.90;;;;;;;20.46;69.51;99254.81;6165637;23;19996;-93
2022/08/31 03:26:31;;;;;;;13.10;6.80;;;;;;;20.41;69.51;99247.63;6165751;23;20027;-93
2022/08/31 03:28:56;;;;;;;10.93;6.93;;;;;;;20.41;68.87;99247.63;6165831;23;20309;-93
2022/08/31 03:31:23;;;;;;;11.57;6.45;;;;;;;20.51;69.31;99277.31;6165740;23;20000;-93
2022/08/31 03:33:48;;;;;;;11.55;7.30;;;;;;;20.34;70.08;99253.66;6166006;23;20001;-93
2022/08/31 03:36:16;;;;;;;10.80;6.82;;;;;;;20.59;69.16;99276.44;6165418;23;20031;-92
2022/08/31 03:38:42;;;;;;;10.30;6.45;;;;;;;20.45;69.47;99264.19;6166670;23;20008;-93
2022/08/31 03:41:07;;;;;;;9.85;6.82;;;;;;;20.22;70.52;99256.34;6167063;23;20005;-93
2022/08/31 03:43:34;;;;;;;8.63;6.68;;;;;;;20.03;70.78;99247.84;6165825;23;20078;-92
2022/08/31 03:46:06;;;;;;;9.85;6.70;;;;;;;20.15;71.04;99283.41;6165354;23;20001;-92
2022/08/31 03:48:31;;;;;;;;;;;;;;;20.06;71.69;99275.28;6165974;23;19984;-92
2022/08/31 03:50:57;;;;;;;15.50;7.35;;;;;;;20.03;71.34;99278.72;6189292;23;20353;-91
2022/08/31 03:53:22;;;;;;;10.23;6.70;;;;;;;20.01;71.01;99269.25;6165734;23;20011;-93
2022/08/31 03:55:48;;;;;;;17.02;8.45;;;;;;;19.94;71.11;99267.84;6165404;23;20058;-92
2022/08/31 03:58:13;;;;;;;14.77;6.60;;;;;;;19.91;71.68;99270.44;6165546;23;20004;-93
2022/08/31 04:00:41;;;;;;;12.32;7.65;;;;;;;19.78;71.88;99273.09;6166337;23;20004;-92
2022/08/31 04:03:07;;;;;;;11.55;7.50;;;;;;;19.75;72.27;99268.28;6166245;23;20351;-93
2022/08/31 04:05:34;;;;;;;13.70;7.20;;;;;;;19.67;72.37;99271.88;6165576;23;20088;-91
2022/08/31 04:08:00;;;;;;;12.02;7.13;;;;;;;19.64;72.35;99274.47;6165396;23;20398;-93
2022/08/31 04:10:25;;;;;;;12.48;7.32;;;;;;;19.69;72.63;99285.97;6165447;23;20086;-92
2022/08/31 04:12:51;;;;;;;11.15;7.95;;;;;;;19.61;72.78;99275.94;6164829;23;20005;-91
2022/08/31 04:15:17;;;;;;;11.15;7.65;;;;;;;19.59;72.83;99267.25;6165729;23;20495;-91
2022/08/31 04:17:51;;;;;;;13.00;9.55;;;;;;;19.78;72.58;99291.44;6162606;23;20001;-91
2022/08/31 04:20:22;;;;;;;9.93;7.35;;;;;;;19.72;72.38;99276.38;6159746;23;20448;-91
2022/08/31 04:22:47;;;;;;;12.70;7.47;;;;;;;19.78;71.97;99278.56;6141206;23;20140;-91
2022/08/31 04:25:13;;;;;;;16.55;8.02;;;;;;;19.83;71.84;99280.28;6163918;23;20239;-91
2022/08/31 04:27:38;;;;;;;18.95;8.32;;;;;;;19.90;71.74;99280.56;6140155;23;20454;-91
2022/08/31 04:30:06;;;;;;;15.75;7.55;;;;;;;19.99;71.60;99280.50;6141206;23;19996;-91
2022/08/31 04:32:32;;;;;;;15.93;7.43;;;;;;;20.04;71.26;99280.28;6165739;23;20355;-93
2022/08/31 04:34:58;;;;;;;11.73;7.50;;;;;;;19.93;71.60;99263.50;6165358;23;19996;-92
2022/08/31 04:37:23;;;;;;;10.32;7.25;;;;;;;20.23;71.47;99295.41;6164412;23;20012;-92
2022/08/31 04:39:49;;;;;;;12.75;7.05;;;;;;;20.26;70.89;99286.56;6164618;23;19996;-91
2022/08/31 04:42:15;;;;;;;11.75;7.18;;;;;;;20.24;70.50;99275.94;6164963;23;20001;-90
2022/08/31 04:44:42;;;;;;;9.13;7.10;;;;;;;20.29;70.43;99286.66;6164659;23;20067;-89
2022/08/31 04:47:07;;;;;;;11.73;8.10;;;;;;;20.26;70.41;99289.31;6189342;23;20000;-93
2022/08/31 04:49:36;;;;;;;11.25;8.15;;;;;;;20.29;71.06;99294.09;6164316;23;20404;-92
2022/08/31 04:52:01;;;;;;;11.82;7.50;;;;;;;20.07;71.03;99268.72;6167007;23;20450;-92
2022/08/31 04:54:28;;;;;;;13.10;7.95;;;;;;;20.12;70.95;99264.97;6164564;23;20004;-92
2022/08/31 04:56:53;;;;;;;12.00;7.75;;;;;;;20.16;71.41;99268.63;6164544;23;20011;-92
2022/08/31 04:59:24;;;;;;;15.88;8.32;;;;;;;20.30;71.05;99265.63;6164630;23;20000;-91
2022/08/31 05:01:50;;;;;;;15.00;8.47;;;;;;;20.44;70.34;99263.38;6166505;23;20027;-90
2022/08/31 05:04:15;;;;;;;11.23;7.60;;;;;;;20.75;70.33;99284.81;6163575;23;20001;-89
2022/08/31 05:07:04;;;;;;;11.65;7.70;;;;;;;20.85;69.00;99260.88;6189132;23;20027;-91
2022/08/31 05:09:29;;;;;;;9.88;6.78;;;;;;;20.96;68.62;99276.53;6072955;23;20104;-92
2022/08/31 05:11:58;;;;;;;12.98;8.27;;;;;;;21.02;68.28;99257.94;6070888;23;20441;-93
2022/08/31 05:14:24;;;;;;;11.43;7.38;;;;;;;21.16;67.58;99266.59;6129820;23;20000;-93
2022/08/31 05:16:52;;;;;;;14.98;7.55;;;;;;;21.30;67.29;99268.22;6165130;23;20005;-92
2022/08/31 05:19:18;;;;;;;11.80;8.02;;;;;;;21.48;66.89;99275.09;6165156;23;20080;-90
2022/08/31 05:21:50;;;;;;;11.75;7.80;;;;;;;21.34;66.99;99256.22;6164291;23;20074;-92
2022/08/31 05:24:19;;;;;;;15.27;7.70;;;;;;;21.50;66.99;99272.00;6188674;23;20008;-90
2022/08/31 05:26:50;;;;;;;13.07;6.95;;;;;;;21.49;66.97;99259.44;6163083;23;20012;-88
2022/08/31 05:29:23;;;;;;;8.30;6.47;;;;;;;21.79;65.87;99271.72;6213969;23;19993;-88
2022/08/31 05:31:49;;;;;;;9.57;6.88;;;;;;;21.92;65.07;99272.50;6164087;23;20019;-91
2022/08/31 05:34:25;;;;;;;9.80;6.55;;;;;;;22.06;65.21;99285.00;6168068;23;20001;-96
2022/08/31 05:36:52;;;;;;;13.82;9.00;;;;;;;22.00;64.98;99268.81;6166880;23;20022;-94
2022/08/31 05:39:25;;;;;;;12.00;6.60;;;;;;;22.18;63.74;99269.34;6166594;23;20005;-94
2022/08/31 05:41:51;;;;;;;10.90;6.60;;;;;;;22.29;63.95;99264.19;6145867;23;20009;-96
2022/08/31 05:44:19;;;;;;;8.52;6.20;;;;;;;22.46;63.47;99267.75;6168731;23;20008;-95
2022/08/31 05:46:45;;;;;;;10.32;6.53;;;;;;;22.56;62.31;99259.03;6170087;23;20004;-95
2022/08/31 05:49:16;;;;;;;11.65;5.97;;;;;;;22.65;61.49;99247.88;6179171;23;20023;-95
2022/08/31 05:51:47;;;;;;;12.40;6.85;;;;;;;22.68;62.61;99250.72;6177387;23;20099;-96
2022/08/31 05:54:16;;;;;;;18.85;14.30;;;;;;;22.96;61.10;99253.38;6199384;23;20039;-94
2022/08/31 05:56:42;;;;;;;10.63;6.60;;;;;;;22.92;61.54;99249.75;6166676;23;20024;-93
2022/08/31 05:59:07;;;;;;;11.73;7.43;;;;;;;23.03;60.96;99247.28;6140889;23;20008;-95
2022/08/31 06:01:41;;;;;;;8.63;5.82;;;;;;;23.14;60.60;99247.56;6166667;23;20016;-93
2022/08/31 06:04:10;;;;;;;15.38;10.25;;;;;;;23.24;59.94;99252.50;6166318;23;20023;-92
2022/08/31 06:06:36;;;;;;;11.27;7.00;;;;;;;23.32;59.75;99268.00;6172670;22;20028;-93
2022/08/31 06:09:01;;;;;;;11.52;5.72;;;;;;;23.45;59.03;99256.88;6147009;23;20016;-91
2022/08/31 06:11:29;;;;;;;13.38;8.10;;;;;;;23.63;58.63;99262.81;6168351;23;20008;-92
2022/08/31 06:13:57;;;;;;;22.88;14.73;;;;;;;23.65;58.42;99268.75;6143875;23;20370;-92
2022/08/31 06:16:22;;;;;;;12.65;7.28;;;;;;;23.60;58.25;99247.84;6167905;23;20059;-91
2022/08/31 06:18:49;;;;;;;12.00;6.72;;;;;;;23.50;59.09;99246.44;6143994;23;20008;-92
2022/08/31 06:21:16;;;;;;;7.45;6.00;;;;;;;23.73;58.77;99262.25;6168521;23;20452;-94
2022/08/31 06:23:41;;;;;;;10.60;6.55;;;;;;;23.77;58.11;99255.69;6165455;23;20118;-93
2022/08/31 06:26:11;;;;;;;12.60;8.05;;;;;;;23.69;57.36;99242.13;6143500;23;20000;-95
2022/08/31 06:28:42;;;;;;;6.82;4.60;;;;;;;23.93;57.10;99254.84;6170044;23;19993;-96
2022/08/31 06:31:14;;;;;;;10.88;4.80;;;;;;;23.76;57.59;99242.25;6145546;23;20428;-94
2022/08/31 06:33:40;;;;;;;9.52;5.55;;;;;;;23.90;58.14;99248.09;6169524;23;20008;-94
2022/08/31 06:36:14;;;;;;;14.60;5.38;;;;;;;24.10;56.84;99250.88;6144066;23;20082;-93
2022/08/31 06:38:40;;;;;;;10.48;4.72;;;;;;;24.27;56.01;99271.63;6143063;23;20135;-91
2022/08/31 06:41:28;;;;;;;6.93;4.47;;;;;;;24.25;55.72;99252.72;6143442;23;20001;-93
2022/08/31 06:43:54;;;;;;;11.25;5.53;;;;;;;24.26;56.45;99259.84;6171967;23;20028;-95
2022/08/31 06:46:20;;;;;;;9.90;5.60;;;;;;;24.21;55.74;99241.66;6169888;23;20005;-95
2022/08/31 06:48:49;;;;;;;9.05;5.10;;;;;;;24.40;55.44;99256.53;6167255;23;20068;-93
2022/08/31 06:51:15;;;;;;;7.53;5.00;;;;;;;24.28;55.19;99241.00;6167452;23;20010;-92
2022/08/31 06:53:43;;;;;;;7.65;5.60;;;;;;;24.48;54.95;99254.75;6169613;23;19997;-95
2022/08/31 06:56:11;;;;;;;7.72;4.38;;;;;;;24.54;54.45;99265.09;6146786;23;19996;-94
2022/08/31 06:58:40;;;;;;;7.22;5.57;;;;;;;24.44;56.12;99257.41;6144795;23;20005;-94
2022/08/31 07:01:45;;;;;;;8.93;4.38;;;;;;;24.55;54.91;99260.38;6144139;23;20003;-96
2022/08/31 07:04:21;;;;;;;10.27;4.28;;;;;;;24.64;53.70;99252.72;6163083;23;20013;-94
2022/08/31 07:06:47;;;;;;;9.75;4.65;;;;;;;24.80;53.34;99258.91;6178906;23;20022;-95
2022/08/31 07:09:16;;;;;;;9.00;5.28;;;;;;;24.75;54.32;99256.44;6153506;23;20091;-96
2022/08/31 07:11:54;;;;;;;10.93;4.65;;;;;;;24.70;53.02;99251.25;6154749;23;20004;-95
2022/08/31 07:14:41;;;;;;;6.13;4.47;;;;;;;24.80;53.37;99260.88;6144318;23;20028;-93
2022/08/31 07:17:11;;;;;;;7.57;4.03;;;;;;;24.91;52.56;99263.78;6171269;23;20001;-95
2022/08/31 07:19:39;;;;;;;8.23;4.32;;;;;;;25.05;52.24;99274.25;6192027;23;20136;-94
2022/08/31 07:22:06;;;;;;;7.15;3.95;;;;;;;25.04;52.49;99262.44;6141508;23;20001;-91
2022/08/31 07:24:35;;;;;;;6.32;4.25;;;;;;;25.11;52.41;99259.81;6136101;23;20005;-91
2022/08/31 07:27:22;;;;;;;4.97;3.75;;;;;;;25.04;51.96;99259.69;6138844;23;20032;-93
2022/08/31 07:29:48;;;;;;;6.50;4.22;;;;;;;25.19;52.07;99267.03;6139271;23;20032;-91
2022/08/31 07:32:14;;;;;;;9.27;3.97;;;;;;;25.28;51.04;99263.25;6136038;23;20001;-94
2022/08/31 07:34:39;;;;;;;8.35;4.45;;;;;;;25.31;51.55;99281.78;6115480;23;19997;-94
2022/08/31 07:42:42;;;;;;;6.88;5.00;;;;;;;25.38;51.05;99274.44;6172154;23;20058;-95
2022/08/31 07:45:11;;;;;;;10.07;4.53;;;;;;;25.40;51.05;99266.59;6145657;23;20000;-96
2022/08/31 07:47:45;;;;;;;6.03;4.35;;;;;;;25.35;50.82;99266.88;6144150;23;20001;-93
2022/08/31 07:50:12;;;;;;;8.52;4.32;;;;;;;25.13;51.71;99246.47;6145699;23;20493;-95
2022/08/31 07:52:53;;;;;;;6.28;3.90;;;;;;;25.60;50.39;99285.75;6193191;23;20000;-93
2022/08/31 07:55:20;;;;;;;8.90;4.50;;;;;;;25.43;50.78;99264.25;6147858;23;20028;-94
2022/08/31 07:57:46;;;;;;;5.40;4.38;;;;;;;25.48;50.73;99263.94;6169401;23;20008;-95
2022/08/31 08:00:20;;;;;;;15.52;8.48;;;;;;;25.71;51.30;99266.59;6167967;23;20067;-95
2022/08/31 08:03:06;;;;;;;8.90;4.53;;;;;;;25.65;50.34;99260.66;6178648;23;20039;-96
2022/08/31 08:05:37;;;;;;;6.93;3.97;;;;;;;25.67;50.53;99261.06;6170512;23;20005;-94
2022/08/31 08:08:04;;;;;;;11.65;3.92;;;;;;;25.66;50.03;99250.41;6169489;23;20020;-90
2022/08/31 08:10:32;;;;;;;5.68;4.05;;;;;;;25.83;50.59;99260.06;6166269;23;20075;-90
2022/08/31 08:16:56;;;;;;;17.88;7.50;;;;;;;25.86;50.16;99265.66;6155015;23;20072;-90
2022/08/31 08:19:27;;;;;;;8.25;4.90;;;;;;;25.86;50.09;99248.28;6130116;23;20067;-92
2022/08/31 08:21:56;;;;;;;8.45;4.90;;;;;;;25.93;50.24;99242.91;6140967;23;20344;-91
2022/08/31 08:24:25;;;;;;;7.63;4.43;;;;;;;26.15;48.76;99243.97;6190097;23;20000;-93
2022/08/31 08:26:51;;;;;;;9.18;4.15;;;;;;;26.07;49.17;99223.75;6166170;23;20067;-91
2022/08/31 08:29:17;;;;;;;9.18;4.40;;;;;;;26.37;48.70;99251.28;6163449;23;20003;-90
2022/08/31 08:31:47;;;;;;;11.02;5.55;;;;;;;26.37;48.25;99231.19;6142747;23;20334;-96
2022/08/31 08:34:16;;;;;;;7.55;3.95;;;;;;;26.46;47.61;99244.66;6141553;23;20005;-91
2022/08/31 08:36:42;;;;;;;8.25;4.40;;;;;;;26.46;48.05;99234.44;6165464;23;20111;-89
2022/08/31 08:39:08;;;;;;;11.48;4.15;;;;;;;26.64;48.13;99245.69;6165075;23;20009;-91
2022/08/31 08:41:36;;;;;;;9.65;4.32;;;;;;;26.55;47.61;99234.13;6165922;23;20030;-90
2022/08/31 08:44:04;;;;;;;10.93;5.07;;;;;;;26.65;47.63;99246.50;6164334;23;19996;-90
2022/08/31 08:46:37;;;;;;;6.93;4.32;;;;;;;26.74;47.10;99231.16;6141544;23;20447;-94
2022/08/31 08:49:39;;;;;;;8.23;4.40;;;;;;;26.61;47.33;99238.94;6142412;23;20001;-92
2022/08/31 08:52:16;;;;;;;8.88;5.45;;;;;;;26.74;47.30;99241.44;6189215;23;20005;-91
2022/08/31 08:54:48;;;;;;;8.45;4.07;;;;;;;26.58;47.07;99208.53;6154797;23;20035;-96
2022/08/31 08:57:21;;;;;;;12.15;4.75;;;;;;;26.95;46.47;99213.19;6185727;23;20086;-96
2022/08/31 09:06:20;;;;;;;;;;;;;;;27.15;45.58;99238.63;6082196;23;20154;-96
2022/08/31 09:09:10;;;;;;;7.95;4.63;;;;;;;27.23;44.96;99234.75;6175925;23;19926;-96
2022/08/31 09:12:06;;;;;;;9.50;3.97;;;;;;;27.33;44.73;99222.16;6192558;23;20018;-94
2022/08/31 09:14:49;;;;;;;5.60;4.03;;;;;;;27.34;45.23;99230.09;6204157;23;20005;-96
2022/08/31 09:17:57;;;;;;;;;;;;;;;;;;;;;
2022/08/31 09:20:32;;;;;;;8.00;4.57;;;;;;;27.27;45.05;99191.34;6150569;23;20009;-96
2022/08/31 09:22:59;;;;;;;10.13;5.80;;;;;;;27.43;44.49;99204.84;6126029;23;20001;-92
2022/08/31 09:25:33;;;;;;;12.77;4.65;;;;;;;27.57;44.61;99201.38;6134568;23;20013;-91
2022/08/31 09:28:19;;;;;;;7.85;4.28;;;;;;;27.48;44.95;99190.66;6140762;23;19985;-94
2022/08/31 09:30:52;;;;;;;10.63;4.32;;;;;;;27.59;44.59;99207.31;6155020;23;20088;-92
2022/08/31 09:33:45;;;;;;;10.77;4.80;;;;;;;27.49;44.01;99174.88;6142176;23;20009;-96
2022/08/31 09:49:11;;;;;;;8.00;4.35;;;;;;;27.80;42.66;99203.84;6187655;22;20060;-96
2022/08/31 09:51:37;;;;;;;8.63;4.30;;;;;;;27.74;43.63;99189.59;6175187;22;20011;-94
2022/08/31 09:57:01;;;;;;;15.90;9.43;;;;;;;27.95;42.44;99180.63;6205184;23;20015;-94
2022/08/31 09:59:33;;;;;;;10.68;4.78;;;;;;;28.02;42.59;99183.41;6115885;23;20005;-94
2022/08/31 10:02:02;;;;;;;;;;;;;;;28.04;41.28;99198.81;6142802;23;20000;-95
2022/08/31 10:05:04;;;;;;;11.40;5.10;;;;;;;28.07;41.45;99204.38;6174293;23;19907;-96
2022/08/31 10:08:11;;;;;;;5.57;3.75;;;;;;;27.97;41.06;99174.69;6138968;23;20001;-95
2022/08/31 10:10:43;;;;;;;9.10;3.50;;;;;;;28.00;40.33;99169.16;6055976;23;20136;-92
2022/08/31 10:13:26;;;;;;;11.20;4.32;;;;;;;28.25;39.94;99185.03;6050657;23;20086;-95
2022/08/31 10:15:53;;;;;;;9.68;4.78;;;;;;;28.33;40.31;99175.56;6045380;23;20087;-90
2022/08/31 10:19:12;;;;;;;8.30;4.53;;;;;;;28.27;38.88;99159.75;6069819;23;20086;-94
2022/08/31 10:21:50;;;;;;;8.32;3.80;;;;;;;28.37;38.73;99158.97;5989687;24;20424;-95
2022/08/31 10:24:49;;;;;;;14.20;3.45;;;;;;;28.25;38.94;99148.25;5985543;23;20115;-96
2022/08/31 10:27:16;;;;;;;7.22;3.42;;;;;;;28.26;38.91;99153.38;6029083;23;20086;-94
2022/08/31 10:29:55;;;;;;;7.10;3.53;;;;;;;28.47;39.03;99158.16;6048598;23;20003;-95
2022/08/31 10:38:51;;;;;;;13.75;4.53;;;;;;;28.57;37.21;99128.91;6075965;23;20018;-95
2022/08/31 10:41:16;;;;;;;8.88;3.22;;;;;;;28.67;37.54;99132.88;6074797;23;20067;-96
2022/08/31 10:49:20;;;;;;;10.57;3.50;;;;;;;28.82;36.94;99109.50;6192152;22;20097;-93
2022/08/31 10:52:34;;;;;;;8.15;3.80;;;;;;;28.95;37.17;99118.19;6159893;23;20005;-96
2022/08/31 10:58:35;;;;;;;7.93;3.85;;;;;;;29.12;37.19;99106.31;6144543;22;20087;-95
2022/08/31 11:05:02;;;;;;;6.18;3.10;;;;;;;29.29;35.08;99103.88;6192379;22;20036;-95
2022/08/31 11:22:08;;;;;;;7.05;4.03;;;;;;;29.61;34.16;99100.94;6174328;22;20079;-96
2022/08/31 11:24:56;;;;;;;8.20;3.58;;;;;;;29.68;34.44;99091.81;6057827;23;20043;-96
2022/08/31 11:30:23;;;;;;;7.47;3.35;;;;;;;29.68;34.73;99092.59;6167353;22;20559;-95
2022/08/31 11:32:59;;;;;;;7.53;3.28;;;;;;;29.54;34.78;99089.91;6170712;23;20009;-94
2022/08/31 11:47:08;;;;;;;9.27;3.40;;;;;;;30.09;32.79;99066.19;6117992;23;20021;-92
2022/08/31 11:49:50;;;;;;;6.00;3.27;;;;;;;30.15;32.66;99061.78;6128306;23;20009;-93
2022/08/31 11:52:28;;;;;;;9.73;3.42;;;;;;;30.07;31.82;99057.47;6106979;23;20028;-94
2022/08/31 11:54:57;;;;;;;5.75;3.28;;;;;;;30.01;32.55;99052.38;6129320;23;20028;-92
2022/08/31 11:57:34;;;;;;;10.68;3.22;;;;;;;30.01;33.23;99043.25;6107625;23;20029;-93
2022/08/31 12:00:00;;;;;;;5.80;3.40;;;;;;;30.17;33.08;99037.16;6083144;23;20349;-91
2022/08/31 12:02:25;;;;;;;13.18;4.88;;;;;;;30.38;33.31;99052.88;6117622;23;20011;-95
2022/08/31 12:05:09;;;;;;;8.45;3.50;;;;;;;30.44;32.76;99026.22;6147222;23;20005;-96
2022/08/31 12:07:34;;;;;;;6.88;2.88;;;;;;;30.65;32.88;99041.91;6085827;23;20344;-91
2022/08/31 12:10:27;;;;;;;7.22;4.40;;;;;;;30.75;33.12;99032.66;6130200;23;20005;-95
2022/08/31 12:20:44;;;;;;;;;;;;;;;;;;;;;
2022/08/31 12:24:18;;;;;;;;;;;;;;;;;;;;;
2022/08/31 12:37:33;;;;;;;12.85;3.47;;;;;;;30.95;32.99;99001.50;6196944;22;20017;-95
2022/08/31 12:47:10;;;;;;;7.55;3.67;;;;;;;30.94;33.10;98989.59;6164902;22;20105;-93
2022/08/31 12:50:11;;;;;;;10.88;4.07;;;;;;;30.97;33.87;98980.41;6129716;22;20057;-95
2022/08/31 12:52:39;;;;;;;8.65;3.88;;;;;;;31.12;33.37;98986.56;6171744;23;20013;-95
2022/08/31 12:55:41;;;;;;;7.55;4.13;;;;;;;31.12;32.58;98980.22;6169526;23;20016;-96
2022/08/31 13:04:05;;;;;;;6.85;3.13;;;;;;;31.28;31.68;98957.38;6177398;22;20148;-96
2022/08/31 13:06:37;;;;;;;8.73;3.53;;;;;;;31.32;31.21;98958.91;6154906;23;20010;-92
2022/08/31 13:09:06;;;;;;;4.65;2.80;;;;;;;31.47;31.52;98965.06;6129926;23;20044;-92
2022/08/31 13:11:38;;;;;;;8.68;2.85;;;;;;;31.61;31.21;98959.28;6105792;23;20127;-92
2022/08/31 13:14:11;;;;;;;7.25;3.58;;;;;;;31.87;31.05;98973.59;6106116;23;20033;-91
2022/08/31 13:16:41;;;;;;;9.73;4.40;;;;;;;31.86;31.42;98935.81;6130645;23;20005;-92
2022/08/31 13:19:07;;;;;;;8.93;4.28;;;;;;;32.06;30.47;98960.97;6130029;23;20044;-93
2022/08/31 13:21:35;;;;;;;8.80;3.15;;;;;;;32.03;30.83;98952.69;6131408;23;20340;-94
2022/08/31 13:24:06;;;;;;;8.15;3.42;;;;;;;32.18;30.24;98945.63;6110861;23;20001;-94
2022/08/31 13:26:39;;;;;;;9.48;3.15;;;;;;;32.20;33.69;98957.91;6106108;23;20036;-93
2022/08/31 13:29:06;;;;;;;6.85;3.13;;;;;;;31.70;36.83;98969.09;6158794;23;19993;-91
2022/08/31 13:31:52;;;;;;;8.82;2.92;;;;;;;30.78;39.45;98976.25;6133433;23;20436;-91
2022/08/31 13:34:19;;;;;;;8.95;3.03;;;;;;;30.05;35.88;98965.47;6141110;23;20067;-90
2022/08/31 13:36:50;;;;;;;7.22;2.47;;;;;;;29.60;36.48;98971.75;6118142;23;20013;-93
2022/08/31 13:39:30;;;;;;;7.03;2.53;;;;;;;29.18;38.87;98979.13;6135088;23;20002;-93
2022/08/31 13:42:10;;;;;;;4.35;2.72;;;;;;;28.84;42.31;98989.94;6134896;23;20009;-96
2022/08/31 13:44:38;;;;;;;5.70;3.10;;;;;;;28.37;44.90;98978.97;6114850;23;20008;-93